Time;durP1;ratioP1;P1;durP2;ratioP2;P2;SDS_P1;SDS_P2;PMS_P1;PMS_P2;Temp;Humidity;BMP_temperature;BMP_pressure;BME280_temperature;BME280_humidity;BME280_pressure;Samples;Min_cycle;Max_cycle;Signal;HPM_P1;HPM_P2
2021/07/09 00:01:23;;;;;;;18.45;12.65;;;;;;;22.34;57.59;100599.13;5034534;28;20042;1
2021/07/09 00:03:49;;;;;;;16.20;12.15;;;;;;;22.67;57.71;100653.69;5034126;28;20048;1
2021/07/09 00:06:20;;;;;;;17.08;11.98;;;;;;;22.34;57.91;100609.78;5033829;28;20103;2
2021/07/09 00:08:48;;;;;;;17.97;13.30;;;;;;;22.80;57.21;100661.09;5033904;28;20128;1
2021/07/09 00:11:16;;;;;;;19.75;12.43;;;;;;;22.47;57.06;100612.81;5033773;28;20325;1
2021/07/09 00:13:43;;;;;;;15.98;11.52;;;;;;;22.79;56.66;100642.50;5034163;28;20040;1
2021/07/09 00:16:12;;;;;;;15.27;11.82;;;;;;;22.52;57.64;100621.47;5033843;28;20038;1
2021/07/09 00:18:38;;;;;;;20.45;12.52;;;;;;;22.77;57.41;100650.53;5033554;28;20132;1
2021/07/09 00:21:04;;;;;;;17.85;12.18;;;;;;;22.85;57.06;100654.66;5034131;28;20105;0
2021/07/09 00:23:31;;;;;;;17.65;12.30;;;;;;;22.70;57.64;100650.91;5034083;28;20072;1
2021/07/09 00:25:57;;;;;;;18.48;12.20;;;;;;;22.14;58.35;100595.53;5033666;28;20049;1
2021/07/09 00:28:25;;;;;;;17.85;12.13;;;;;;;22.43;58.58;100654.69;5033763;28;20536;2
2021/07/09 00:30:51;;;;;;;14.32;10.90;;;;;;;22.50;58.21;100651.78;5033458;28;20078;1
2021/07/09 00:33:17;;;;;;;15.82;11.60;;;;;;;22.03;58.54;100595.16;5034333;28;20445;1
2021/07/09 00:35:43;;;;;;;15.93;12.57;;;;;;;22.07;59.00;100609.16;5032864;28;20480;2
2021/07/09 00:38:09;;;;;;;12.73;8.48;;;;;;;22.51;56.78;100649.03;5034323;28;20040;1
2021/07/09 00:40:35;;;;;;;17.05;11.98;;;;;;;22.65;58.09;100640.44;5033203;28;20046;1
2021/07/09 00:43:02;;;;;;;17.75;13.00;;;;;;;22.53;58.63;100648.97;5033287;28;20080;1
2021/07/09 00:45:28;;;;;;;11.65;9.68;;;;;;;22.53;57.42;100636.53;5033266;28;20041;1
2021/07/09 00:47:54;;;;;;;15.48;11.65;;;;;;;22.29;57.27;100588.69;5033536;28;20072;2
2021/07/09 00:50:21;;;;;;;22.10;12.38;;;;;;;22.30;58.41;100590.38;5033431;28;20413;1
2021/07/09 00:52:47;;;;;;;16.95;13.52;;;;;;;22.28;59.69;100644.66;5032935;28;20084;1
2021/07/09 00:55:14;;;;;;;17.17;12.95;;;;;;;22.01;59.49;100604.13;5033370;28;20559;1
2021/07/09 00:57:44;;;;;;;22.75;13.13;;;;;;;21.81;59.95;100576.53;5033167;28;20492;2
2021/07/09 01:00:13;;;;;;;16.08;11.13;;;;;;;22.15;57.84;100625.69;5049391;28;20044;1
2021/07/09 01:02:39;;;;;;;16.55;11.65;;;;;;;22.22;59.02;100619.16;5052924;28;20032;1
2021/07/09 01:05:07;;;;;;;17.30;12.65;;;;;;;22.07;59.54;100598.50;5053046;28;20041;1
2021/07/09 01:07:34;;;;;;;19.20;12.82;;;;;;;22.18;59.93;100627.38;5052773;28;20091;2
2021/07/09 01:10:00;;;;;;;21.48;12.43;;;;;;;22.12;60.15;100629.38;5052969;28;20447;2
2021/07/09 01:12:27;;;;;;;17.83;12.70;;;;;;;22.09;60.64;100637.47;5052739;28;20036;1
2021/07/09 01:14:53;;;;;;;16.40;12.32;;;;;;;22.07;60.34;100628.69;5052955;28;20532;1
2021/07/09 01:17:20;;;;;;;16.52;12.55;;;;;;;21.98;60.67;100631.75;5052682;28;20052;1
2021/07/09 01:19:47;;;;;;;19.23;13.07;;;;;;;21.77;61.28;100606.84;5052431;28;20135;1
2021/07/09 01:22:13;;;;;;;18.25;12.02;;;;;;;21.58;60.90;100581.00;5051497;28;20033;1
2021/07/09 01:24:39;;;;;;;18.58;13.15;;;;;;;21.51;61.58;100568.88;5052526;28;20128;1
2021/07/09 01:27:06;;;;;;;20.88;13.07;;;;;;;21.57;61.24;100576.59;5052539;28;20127;1
2021/07/09 01:29:33;;;;;;;18.77;14.50;;;;;;;21.86;61.58;100627.75;5052430;28;20084;1
2021/07/09 01:31:59;;;;;;;19.65;12.88;;;;;;;21.51;61.31;100563.56;5052762;28;20515;1
2021/07/09 01:34:25;;;;;;;16.50;13.13;;;;;;;21.72;61.02;100587.53;5053052;28;20068;1
2021/07/09 01:36:52;;;;;;;22.33;13.43;;;;;;;22.06;60.90;100631.38;5052824;28;20029;1
2021/07/09 01:39:18;;;;;;;16.65;13.18;;;;;;;21.67;61.32;100568.25;5052287;28;20045;3
2021/07/09 01:41:45;;;;;;;20.58;13.40;;;;;;;21.92;61.28;100624.84;5052762;28;20041;3
2021/07/09 01:44:11;;;;;;;19.80;12.60;;;;;;;21.73;61.10;100584.84;5051151;28;20087;2
2021/07/09 01:46:37;;;;;;;17.25;13.13;;;;;;;21.88;61.38;100622.41;5054371;28;20550;3
2021/07/09 01:49:03;;;;;;;18.33;12.60;;;;;;;21.43;61.86;100560.31;5057043;28;20045;2
2021/07/09 01:51:30;;;;;;;17.20;12.35;;;;;;;21.58;61.88;100596.13;5055123;28;20044;2
2021/07/09 01:53:56;;;;;;;16.73;11.45;;;;;;;21.50;61.55;100572.44;5057114;28;20028;1
2021/07/09 01:56:22;;;;;;;10.75;9.52;;;;;;;21.83;58.55;100565.84;5056520;28;20047;1
2021/07/09 01:58:48;;;;;;;17.00;12.02;;;;;;;22.06;59.19;100559.50;5056160;28;20080;1
2021/07/09 02:01:14;;;;;;;10.52;8.48;;;;;;;22.75;56.57;100624.88;5057007;28;20064;1
2021/07/09 02:03:40;;;;;;;18.90;12.80;;;;;;;22.42;59.07;100569.50;5056054;28;20082;1
2021/07/09 02:06:11;;;;;;;16.60;12.73;;;;;;;22.61;59.45;100626.38;5056385;28;20036;1
2021/07/09 02:08:38;;;;;;;19.08;13.40;;;;;;;22.65;59.55;100634.25;5056846;28;20039;1
2021/07/09 02:11:03;;;;;;;16.48;11.95;;;;;;;22.76;57.96;100626.63;5056304;28;20407;1
2021/07/09 02:13:30;;;;;;;17.52;12.38;;;;;;;22.39;58.98;100564.34;5056229;28;20036;1
2021/07/09 02:15:56;;;;;;;13.23;9.18;;;;;;;22.69;57.21;100563.88;5055906;28;20063;1
2021/07/09 02:18:22;;;;;;;10.93;8.48;;;;;;;22.79;56.22;100558.06;5055609;28;20064;1
2021/07/09 02:20:48;;;;;;;16.55;12.23;;;;;;;22.65;58.46;100564.97;5056436;28;20049;1
2021/07/09 02:23:16;;;;;;;16.98;11.43;;;;;;;22.88;58.07;100596.75;5056081;28;20036;2
2021/07/09 02:25:43;;;;;;;17.55;12.52;;;;;;;22.82;58.77;100623.69;5055920;28;20080;2
2021/07/09 02:28:09;;;;;;;15.98;13.05;;;;;;;22.80;59.19;100631.75;5055748;28;20054;2
2021/07/09 02:30:35;;;;;;;11.73;9.00;;;;;;;22.76;56.87;100627.50;5054352;28;20044;1
2021/07/09 02:33:04;;;;;;;19.45;13.50;;;;;;;22.44;58.77;100576.50;5055695;28;20115;1
2021/07/09 02:35:35;;;;;;;15.07;13.40;;;;;;;22.27;59.36;100579.88;5056349;28;20127;2
2021/07/09 02:38:02;;;;;;;20.08;13.77;;;;;;;22.42;59.18;100593.50;5054786;28;20041;2
2021/07/09 02:40:30;;;;;;;17.83;13.27;;;;;;;22.30;58.48;100590.38;5055459;28;20049;2
2021/07/09 02:42:59;;;;;;;12.07;9.63;;;;;;;22.67;56.98;100627.94;5055480;28;20037;2
2021/07/09 02:45:27;;;;;;;11.75;9.32;;;;;;;22.53;57.12;100563.69;5055600;28;20049;1
2021/07/09 02:47:53;;;;;;;15.05;10.90;;;;;;;22.85;58.32;100636.00;5055704;28;20041;1
2021/07/09 02:50:22;;;;;;;18.10;13.15;;;;;;;22.72;57.51;100599.28;5055749;28;20049;1
2021/07/09 02:52:50;;;;;;;11.00;8.52;;;;;;;22.95;56.00;100634.66;5055512;28;20045;2
2021/07/09 02:55:18;;;;;;;15.85;11.23;;;;;;;23.01;58.37;100620.16;5055811;28;20079;1
2021/07/09 02:57:45;;;;;;;16.25;12.38;;;;;;;22.55;59.05;100573.34;5054849;28;20531;1
2021/07/09 03:00:14;;;;;;;20.27;13.15;;;;;;;22.48;59.81;100603.88;5055432;28;20411;1
2021/07/09 03:02:41;;;;;;;21.95;14.10;;;;;;;22.32;60.75;100611.66;5055093;28;20048;1
2021/07/09 03:05:09;;;;;;;17.42;13.70;;;;;;;21.97;61.54;100596.25;5054068;28;20493;1
2021/07/09 03:07:36;;;;;;;18.63;13.77;;;;;;;21.89;61.42;100578.84;5055361;28;20037;2
2021/07/09 03:10:05;;;;;;;20.17;14.60;;;;;;;22.01;61.79;100610.31;5055125;28;20093;2
2021/07/09 03:12:31;;;;;;;22.02;14.10;;;;;;;22.11;61.76;100626.75;5055184;28;20094;1
2021/07/09 03:14:58;;;;;;;19.00;13.02;;;;;;;21.87;61.22;100576.28;5053738;28;20549;1
2021/07/09 03:17:24;;;;;;;19.48;14.60;;;;;;;21.72;61.76;100553.84;5054671;28;20124;2
2021/07/09 03:19:50;;;;;;;15.95;12.38;;;;;;;22.06;60.37;100587.00;5015445;28;20115;1
2021/07/09 03:22:16;;;;;;;21.10;14.95;;;;;;;22.24;61.88;100625.31;5014180;28;20057;2
2021/07/09 03:24:42;;;;;;;19.30;14.52;;;;;;;22.14;62.35;100629.28;5013644;28;20042;1
2021/07/09 03:27:09;;;;;;;22.63;13.68;;;;;;;22.21;61.66;100608.59;5013739;28;20425;2
2021/07/09 03:29:35;;;;;;;17.45;12.65;;;;;;;22.55;59.07;100620.47;5014811;28;20413;1
2021/07/09 03:32:01;;;;;;;17.70;13.13;;;;;;;22.10;59.96;100556.66;5014833;28;20514;1
2021/07/09 03:34:27;;;;;;;19.45;12.82;;;;;;;22.57;58.73;100573.31;5014778;28;20132;1
2021/07/09 03:36:53;;;;;;;12.75;9.90;;;;;;;22.59;57.03;100569.63;5014669;28;20046;1
2021/07/09 03:39:19;;;;;;;19.98;13.15;;;;;;;22.70;59.27;100558.47;5014593;28;20054;1
2021/07/09 03:41:45;;;;;;;15.38;12.25;;;;;;;22.66;58.75;100548.03;5014569;28;20052;1
2021/07/09 03:44:11;;;;;;;18.33;12.05;;;;;;;22.95;58.02;100632.84;5014709;28;20045;1
2021/07/09 03:46:41;;;;;;;16.52;12.32;;;;;;;22.91;59.26;100627.75;5014713;28;20073;1
2021/07/09 03:49:08;;;;;;;16.83;12.02;;;;;;;22.79;59.03;100571.38;5014689;28;20505;1
2021/07/09 03:51:37;;;;;;;13.63;10.00;;;;;;;23.32;56.42;100627.63;5014339;28;20073;1
2021/07/09 03:54:04;;;;;;;14.80;11.55;;;;;;;23.37;57.07;100592.75;5014924;28;20445;0
2021/07/09 03:56:31;;;;;;;15.50;11.07;;;;;;;23.28;56.31;100573.59;5014625;28;20499;1
2021/07/09 03:58:58;;;;;;;15.43;12.10;;;;;;;23.50;58.38;100633.03;5012998;28;20076;1
2021/07/09 04:01:25;;;;;;;16.58;11.48;;;;;;;23.42;57.71;100604.91;5014699;28;20466;1
2021/07/09 04:03:51;;;;;;;15.88;11.88;;;;;;;23.26;57.56;100586.13;5014113;28;20044;1
2021/07/09 04:06:17;;;;;;;18.88;11.48;;;;;;;23.19;57.97;100566.00;5014448;28;20045;1
2021/07/09 04:08:44;;;;;;;16.50;11.30;;;;;;;23.49;57.66;100626.81;5014335;28;20033;1
2021/07/09 04:11:10;;;;;;;12.23;9.38;;;;;;;23.57;55.76;100589.97;5013419;28;20096;1
2021/07/09 04:13:36;;;;;;;14.73;9.05;;;;;;;23.71;55.02;100615.09;5013082;28;20489;1
2021/07/09 04:16:02;;;;;;;16.15;11.38;;;;;;;23.87;56.52;100615.19;5014559;28;20100;1
2021/07/09 04:18:29;;;;;;;14.45;9.85;;;;;;;23.93;55.75;100594.44;5031506;28;20044;1
2021/07/09 04:20:55;;;;;;;16.30;11.45;;;;;;;23.86;55.48;100568.97;5053927;28;20143;1
2021/07/09 04:23:22;;;;;;;14.80;10.63;;;;;;;23.90;55.53;100565.22;5054113;28;20041;1
2021/07/09 04:25:48;;;;;;;18.00;12.38;;;;;;;23.77;55.79;100562.28;5053593;28;20053;1
2021/07/09 04:28:14;;;;;;;16.15;10.93;;;;;;;24.07;55.18;100625.78;5054047;28;20047;1
2021/07/09 04:30:40;;;;;;;15.70;10.88;;;;;;;24.19;55.56;100623.44;5053594;28;20494;1
2021/07/09 04:33:06;;;;;;;14.65;9.77;;;;;;;24.13;55.68;100613.06;5053604;28;20033;1
2021/07/09 04:35:33;;;;;;;17.40;12.85;;;;;;;23.67;56.58;100550.31;5053609;28;20047;1
2021/07/09 04:37:59;;;;;;;11.73;8.95;;;;;;;23.92;54.25;100550.00;5053469;28;20033;2
2021/07/09 04:40:25;;;;;;;15.73;11.10;;;;;;;24.01;54.53;100585.19;5053175;28;20041;1
2021/07/09 04:42:51;;;;;;;14.10;11.68;;;;;;;24.18;56.30;100621.69;5053385;28;20036;1
2021/07/09 04:45:17;;;;;;;14.52;9.95;;;;;;;24.23;55.51;100606.31;5053076;28;20045;1
2021/07/09 04:47:43;;;;;;;15.70;10.88;;;;;;;24.09;56.42;100580.28;5053077;28;20040;1
2021/07/09 04:50:10;;;;;;;17.55;11.75;;;;;;;23.84;56.75;100544.13;5052055;28;20041;1
2021/07/09 04:52:36;;;;;;;17.60;12.38;;;;;;;24.11;56.80;100603.31;5052952;28;20051;1
2021/07/09 04:55:03;;;;;;;14.00;10.52;;;;;;;24.19;54.08;100594.91;5052894;28;20045;1
2021/07/09 04:57:29;;;;;;;18.23;12.05;;;;;;;23.98;56.00;100555.97;5053224;28;20068;1
2021/07/09 04:59:55;;;;;;;12.63;9.88;;;;;;;24.32;56.07;100596.94;5053139;28;20515;1
2021/07/09 05:02:21;;;;;;;13.65;10.68;;;;;;;23.84;54.85;100525.44;5053289;28;20539;1
2021/07/09 05:04:47;;;;;;;19.38;10.90;;;;;;;24.31;56.07;100598.75;5053187;28;20127;1
2021/07/09 05:07:13;;;;;;;18.70;10.57;;;;;;;24.35;55.44;100575.41;5052741;28;20090;1
2021/07/09 05:09:39;;;;;;;14.40;10.20;;;;;;;24.52;54.89;100594.09;5052696;28;20045;1
2021/07/09 05:12:05;;;;;;;15.40;9.85;;;;;;;24.67;54.17;100591.59;5052704;28;20040;1
2021/07/09 05:14:31;;;;;;;16.83;10.05;;;;;;;24.73;53.84;100602.81;5052908;28;20377;1
2021/07/09 05:16:57;;;;;;;12.98;8.57;;;;;;;24.69;53.16;100565.63;5052944;28;20036;1
2021/07/09 05:19:25;;;;;;;11.57;8.75;;;;;;;24.98;52.82;100598.78;5052457;28;20147;1
2021/07/09 05:21:51;;;;;;;9.65;8.07;;;;;;;24.90;52.53;100579.59;5052704;28;20072;1
2021/07/09 05:24:19;;;;;;;10.13;7.78;;;;;;;24.96;51.93;100597.16;5051221;28;20037;1
2021/07/09 05:26:47;;;;;;;12.43;8.23;;;;;;;25.17;51.41;100593.28;5052532;28;20037;1
2021/07/09 05:29:13;;;;;;;10.13;8.05;;;;;;;25.23;51.39;100592.09;5051815;28;20048;1
2021/07/09 05:31:40;;;;;;;10.70;8.35;;;;;;;25.27;51.31;100593.63;5052469;28;20492;1
2021/07/09 05:34:06;;;;;;;12.18;8.00;;;;;;;25.42;51.49;100594.59;5052432;28;20069;1
2021/07/09 05:36:32;;;;;;;9.23;7.85;;;;;;;25.40;50.55;100570.59;5052590;28;20494;0
2021/07/09 05:38:58;;;;;;;11.35;7.80;;;;;;;25.45;50.90;100594.44;5052579;28;20044;1
2021/07/09 05:41:25;;;;;;;10.20;7.53;;;;;;;25.38;50.39;100561.81;5052377;28;20063;1
2021/07/09 05:43:51;;;;;;;9.77;7.63;;;;;;;25.75;50.08;100588.25;5052571;28;20467;1
2021/07/09 05:46:17;;;;;;;12.52;8.30;;;;;;;25.78;50.51;100577.34;5052896;28;20066;1
2021/07/09 05:48:43;;;;;;;10.77;8.18;;;;;;;25.69;50.46;100576.06;5052494;28;20044;1
2021/07/09 05:51:09;;;;;;;11.90;7.47;;;;;;;25.80;50.62;100586.19;5051349;28;20041;1
2021/07/09 05:53:35;;;;;;;12.90;8.40;;;;;;;25.70;50.41;100577.81;5052243;28;20044;1
2021/07/09 05:56:01;;;;;;;11.35;8.05;;;;;;;25.75;50.35;100561.47;5051893;28;20051;1
2021/07/09 05:58:28;;;;;;;12.13;8.38;;;;;;;25.98;49.71;100580.66;5052348;28;20404;1
2021/07/09 06:00:54;;;;;;;13.50;9.18;;;;;;;25.84;51.25;100550.22;5052357;28;20045;1
2021/07/09 06:03:20;;;;;;;15.98;9.25;;;;;;;25.96;51.31;100571.84;5051985;28;20041;1
2021/07/09 06:05:46;;;;;;;12.88;8.25;;;;;;;25.94;49.72;100577.31;5052020;28;20069;1
2021/07/09 06:08:12;;;;;;;10.65;8.00;;;;;;;26.05;49.70;100576.72;5052488;28;20049;1
2021/07/09 06:10:38;;;;;;;16.42;7.90;;;;;;;26.08;49.22;100577.38;5051887;28;20049;1
2021/07/09 06:13:04;;;;;;;10.27;8.23;;;;;;;26.12;49.75;100571.84;5051977;28;20036;1
2021/07/09 06:15:32;;;;;;;12.00;8.93;;;;;;;26.07;48.81;100573.00;5051855;28;20045;1
2021/07/09 06:17:58;;;;;;;12.50;7.78;;;;;;;26.18;49.16;100569.66;5051973;28;20053;2
2021/07/09 06:20:24;;;;;;;10.20;7.00;;;;;;;26.32;48.59;100567.94;5051927;28;20061;1
2021/07/09 06:22:50;;;;;;;7.63;6.57;;;;;;;26.39;47.96;100577.34;5050964;28;20036;1
2021/07/09 06:25:17;;;;;;;13.30;7.43;;;;;;;26.54;48.05;100584.44;5051815;28;20041;1
2021/07/09 06:27:43;;;;;;;10.20;6.65;;;;;;;26.42;47.91;100575.31;5051874;28;20072;1
2021/07/09 06:30:11;;;;;;;16.00;7.95;;;;;;;26.55;47.88;100575.41;5052199;28;20091;2
2021/07/09 06:32:37;;;;;;;15.38;8.02;;;;;;;26.57;47.97;100564.63;5052130;28;20570;1
2021/07/09 06:35:07;;;;;;;13.00;7.95;;;;;;;26.69;47.41;100565.66;5055586;28;20455;1
2021/07/09 06:37:33;;;;;;;9.48;7.28;;;;;;;26.77;48.25;100566.06;5055888;28;20036;1
2021/07/09 06:40:00;;;;;;;12.32;8.02;;;;;;;26.77;47.70;100554.50;5055385;28;20041;1
2021/07/09 06:42:26;;;;;;;11.88;7.97;;;;;;;26.85;46.68;100566.44;5055314;28;20048;1
2021/07/09 06:44:52;;;;;;;13.00;7.22;;;;;;;26.85;46.98;100570.94;5055574;28;20094;1
2021/07/09 06:47:20;;;;;;;9.90;7.68;;;;;;;26.91;46.50;100563.38;5056208;28;20041;1
2021/07/09 06:49:47;;;;;;;8.48;7.32;;;;;;;26.92;46.04;100540.06;5055547;28;20040;1
2021/07/09 06:52:14;;;;;;;11.68;8.02;;;;;;;27.02;46.31;100559.13;5055491;28;20060;1
2021/07/09 06:54:40;;;;;;;9.40;7.22;;;;;;;27.01;43.96;100560.97;5055436;28;20041;1
2021/07/09 06:57:06;;;;;;;10.05;7.38;;;;;;;27.05;45.35;100559.81;5055451;28;20036;2
2021/07/09 06:59:32;;;;;;;19.27;7.88;;;;;;;27.14;45.68;100565.53;5054882;28;20040;1
2021/07/09 07:01:58;;;;;;;9.93;6.82;;;;;;;27.27;43.92;100576.34;5054855;28;20049;0
2021/07/09 07:04:25;;;;;;;10.27;7.00;;;;;;;27.27;43.64;100568.28;5056550;28;20061;1
2021/07/09 07:06:54;;;;;;;13.73;7.18;;;;;;;27.37;43.00;100574.78;5073925;28;20067;1
2021/07/09 07:09:20;;;;;;;10.80;6.60;;;;;;;27.30;43.39;100574.31;5075290;28;20419;1
2021/07/09 07:11:46;;;;;;;17.70;8.07;;;;;;;27.33;44.86;100566.06;5060528;28;20037;1
2021/07/09 07:14:12;;;;;;;11.48;7.03;;;;;;;27.39;44.32;100560.31;5054646;28;20044;1
2021/07/09 07:16:38;;;;;;;9.90;7.15;;;;;;;27.49;43.22;100557.03;5055009;28;20353;1
2021/07/09 07:19:04;;;;;;;9.80;7.40;;;;;;;27.23;42.61;100543.47;5054356;28;20532;1
2021/07/09 07:21:30;;;;;;;11.65;7.10;;;;;;;27.60;43.21;100567.03;5054236;28;20125;1
2021/07/09 07:23:56;;;;;;;22.85;8.13;;;;;;;27.54;44.51;100566.47;5055020;28;20484;-4
2021/07/09 07:26:22;;;;;;;24.52;8.82;;;;;;;27.63;43.62;100565.00;5054476;28;20064;-4
2021/07/09 07:28:48;;;;;;;21.45;9.05;;;;;;;27.72;43.63;100563.53;5054462;28;20041;-4
2021/07/09 07:31:14;;;;;;;26.88;9.50;;;;;;;27.68;44.08;100567.41;5055159;28;20496;-4
2021/07/09 07:33:41;;;;;;;13.40;8.35;;;;;;;27.77;43.19;100556.03;5054904;28;20094;-5
2021/07/09 07:36:07;;;;;;;24.50;9.77;;;;;;;27.96;42.86;100558.31;5054440;28;20526;-4
2021/07/09 07:38:33;;;;;;;8.30;7.45;;;;;;;28.11;41.60;100558.25;5054145;28;20044;-5
2021/07/09 07:41:01;;;;;;;8.90;7.25;;;;;;;28.20;41.88;100558.50;5053646;28;20385;-5
2021/07/09 07:43:27;;;;;;;31.73;10.07;;;;;;;28.00;43.12;100558.97;5054918;28;20033;-5
2021/07/09 07:45:53;;;;;;;13.63;8.18;;;;;;;28.04;42.89;100555.13;5054151;28;20059;-4
2021/07/09 07:48:20;;;;;;;10.15;7.90;;;;;;;28.02;42.17;100549.88;5053492;28;20040;-5
2021/07/09 07:50:46;;;;;;;9.35;7.47;;;;;;;28.06;41.81;100546.00;5052032;28;20106;-4
2021/07/09 07:53:12;;;;;;;8.05;7.22;;;;;;;28.16;42.11;100548.94;5053637;28;20055;-4
2021/07/09 07:55:38;;;;;;;33.00;10.15;;;;;;;28.17;42.58;100550.66;5053662;28;20540;-4
2021/07/09 07:58:05;;;;;;;9.55;7.50;;;;;;;28.16;41.17;100539.97;5051595;28;20041;-5
2021/07/09 08:00:31;;;;;;;14.93;8.18;;;;;;;28.34;41.47;100546.78;5052728;28;20036;-4
2021/07/09 08:02:57;;;;;;;13.93;7.80;;;;;;;28.34;41.46;100540.53;5052244;28;20048;-5
2021/07/09 08:05:38;;;;;;;9.65;7.07;;;;;;;28.26;41.66;100543.75;5053427;28;20045;-4
2021/07/09 08:08:07;;;;;;;10.60;7.57;;;;;;;28.26;41.91;100549.13;5053892;28;20392;-5
2021/07/09 08:10:34;;;;;;;11.05;7.47;;;;;;;28.25;42.04;100544.72;5053865;28;20041;-4
2021/07/09 08:13:00;;;;;;;14.30;7.55;;;;;;;28.17;41.86;100545.28;5054646;28;20032;-5
2021/07/09 08:15:28;;;;;;;8.07;7.10;;;;;;;28.22;41.55;100537.75;5053595;28;20063;-5
2021/07/09 08:17:54;;;;;;;31.30;9.60;;;;;;;28.12;42.40;100539.34;5053695;28;20045;-4
2021/07/09 08:20:21;;;;;;;18.33;8.10;;;;;;;28.31;41.83;100544.28;5053483;28;20115;-4
2021/07/09 08:22:47;;;;;;;16.48;8.48;;;;;;;28.13;41.23;100522.25;5053568;28;20182;-4
2021/07/09 08:25:16;;;;;;;21.42;8.80;;;;;;;28.32;41.44;100542.47;5052609;28;20033;-4
2021/07/09 08:27:42;;;;;;;29.30;9.15;;;;;;;28.25;41.47;100527.72;5052418;28;20081;-3
2021/07/09 08:30:10;;;;;;;9.20;6.88;;;;;;;28.27;40.98;100531.19;5052680;28;20044;-4
2021/07/09 08:32:36;;;;;;;20.05;9.00;;;;;;;28.22;42.36;100531.50;5051331;28;20044;-4
2021/07/09 08:35:04;;;;;;;8.68;7.35;;;;;;;28.43;40.52;100526.44;5052790;28;20033;-12
2021/07/09 08:37:30;;;;;;;16.92;12.45;;;;;;;28.44;40.21;100525.47;5052768;28;20051;-5
2021/07/09 08:39:57;;;;;;;13.85;7.78;;;;;;;28.41;40.57;100522.13;5053576;28;20117;1
2021/07/09 08:42:23;;;;;;;19.65;7.85;;;;;;;28.37;41.07;100508.06;5053055;28;20036;1
2021/07/09 08:44:49;;;;;;;26.52;10.27;;;;;;;28.57;41.42;100513.84;5052570;28;20132;0
2021/07/09 08:47:15;;;;;;;28.60;10.40;;;;;;;28.86;41.16;100506.38;5052509;28;20125;0
2021/07/09 08:49:42;;;;;;;18.65;8.15;;;;;;;29.00;40.25;100518.81;5053501;28;20552;1
2021/07/09 08:52:08;;;;;;;8.93;7.28;;;;;;;29.28;39.35;100508.72;5053267;28;20040;1
2021/07/09 08:54:34;;;;;;;29.52;10.07;;;;;;;28.96;41.00;100509.25;5053124;28;20037;1
2021/07/09 08:57:01;;;;;;;8.60;7.65;;;;;;;28.76;40.15;100513.38;5052052;28;20041;1
2021/07/09 08:59:27;;;;;;;9.02;7.15;;;;;;;28.82;39.59;100518.34;5053150;28;20369;1
2021/07/09 09:01:57;;;;;;;18.50;8.35;;;;;;;28.45;40.97;100459.13;5052620;28;20036;1
2021/07/09 09:04:31;;;;;;;9.13;7.05;;;;;;;28.77;39.86;100509.72;5052812;28;20427;1
2021/07/09 09:07:05;;;;;;;10.15;7.60;;;;;;;28.75;38.82;100500.91;5050870;28;20421;1
2021/07/09 09:09:34;;;;;;;12.05;8.70;;;;;;;28.87;38.75;100500.88;5052301;28;20091;2
2021/07/09 09:12:14;;;;;;;10.00;6.72;;;;;;;29.01;38.78;100482.88;5052527;28;20580;1
2021/07/09 09:14:43;;;;;;;10.60;7.80;;;;;;;29.16;39.58;100500.53;5052825;28;20037;1
2021/07/09 09:17:36;;;;;;;9.85;7.68;;;;;;;29.63;37.82;100500.63;5052444;28;20037;1
2021/07/09 09:20:14;;;;;;;9.80;7.80;;;;;;;29.69;37.36;100496.63;5052795;28;20420;1
2021/07/09 09:22:50;;;;;;;8.38;7.57;;;;;;;29.71;37.56;100505.44;5053039;28;20067;1
2021/07/09 09:25:17;;;;;;;16.67;8.73;;;;;;;29.50;38.82;100486.41;5052984;28;20041;1
2021/07/09 09:27:44;;;;;;;15.07;7.88;;;;;;;29.47;37.06;100506.34;5052620;28;20520;1
2021/07/09 09:30:13;;;;;;;8.45;6.47;;;;;;;29.36;36.16;100495.56;5051576;28;20507;1
2021/07/09 09:32:49;;;;;;;11.32;7.90;;;;;;;29.22;36.91;100507.31;5052640;28;20049;1
2021/07/09 09:35:24;;;;;;;9.60;7.63;;;;;;;29.11;37.11;100480.31;5052804;28;20368;1
2021/07/09 09:37:55;;;;;;;10.82;7.85;;;;;;;29.45;36.90;100493.97;5052625;28;20131;2
2021/07/09 09:40:25;;;;;;;10.00;7.32;;;;;;;29.52;37.35;100490.69;5052665;28;20599;1
2021/07/09 09:42:52;;;;;;;8.57;6.97;;;;;;;29.23;36.55;100457.00;5051951;28;20136;1
2021/07/09 09:45:22;;;;;;;8.20;6.63;;;;;;;29.30;36.93;100455.63;5052128;28;20040;1
2021/07/09 09:47:49;;;;;;;19.83;9.50;;;;;;;29.32;38.55;100473.38;5052167;28;20044;1
2021/07/09 09:50:23;;;;;;;11.93;8.05;;;;;;;29.61;37.46;100467.59;5052533;28;20072;0
2021/07/09 09:52:52;;;;;;;9.95;7.43;;;;;;;29.70;37.06;100474.13;5052501;28;20052;0
2021/07/09 09:55:18;;;;;;;11.15;8.02;;;;;;;29.68;35.82;100482.28;5052150;28;20037;0
2021/07/09 09:57:46;;;;;;;10.02;7.47;;;;;;;29.60;36.30;100471.25;5052338;28;20143;0
2021/07/09 10:00:21;;;;;;;10.00;7.25;;;;;;;29.70;36.04;100471.41;5052405;28;20112;0
2021/07/09 10:02:48;;;;;;;22.63;8.88;;;;;;;29.65;38.07;100474.44;5052415;28;20098;0
2021/07/09 10:05:14;;;;;;;10.10;6.90;;;;;;;30.16;36.21;100473.22;5052017;28;20102;0
2021/07/09 10:07:41;;;;;;;16.65;8.88;;;;;;;30.20;36.61;100466.59;5051671;28;20045;0
2021/07/09 10:10:09;;;;;;;15.18;9.13;;;;;;;29.81;38.33;100451.72;5055844;28;20052;0
2021/07/09 10:12:37;;;;;;;9.70;7.20;;;;;;;30.43;36.05;100458.50;5056199;28;20041;0
2021/07/09 10:15:04;;;;;;;9.55;7.35;;;;;;;30.02;35.94;100457.28;5055803;28;20562;0
2021/07/09 10:17:30;;;;;;;14.40;8.07;;;;;;;30.08;36.45;100453.22;5055656;28;20102;0
2021/07/09 10:19:59;;;;;;;10.73;8.20;;;;;;;30.15;36.85;100454.47;5056409;28;20037;0
2021/07/09 10:22:25;;;;;;;10.55;7.90;;;;;;;30.11;36.52;100450.31;5054664;28;20396;0
2021/07/09 10:24:54;;;;;;;8.07;7.28;;;;;;;30.41;35.52;100446.97;5055541;28;20044;1
2021/07/09 10:27:23;;;;;;;11.38;8.02;;;;;;;30.57;35.56;100443.91;5038021;28;20481;1
2021/07/09 10:29:50;;;;;;;8.13;7.03;;;;;;;30.34;34.99;100441.22;5055469;28;20048;1
2021/07/09 10:32:36;;;;;;;10.88;8.23;;;;;;;30.27;35.10;100442.72;5055446;28;20435;1
2021/07/09 10:35:06;;;;;;;10.70;7.50;;;;;;;30.32;34.50;100427.00;5056056;28;20119;2
2021/07/09 10:37:32;;;;;;;8.93;8.00;;;;;;;30.22;35.85;100423.34;5055882;28;20522;-4
2021/07/09 10:40:12;;;;;;;9.70;7.70;;;;;;;30.43;35.58;100426.13;5055169;28;20029;-4
2021/07/09 10:42:42;;;;;;;10.85;7.93;;;;;;;30.43;37.10;100425.25;5042699;28;20127;-4
2021/07/09 10:45:25;;;;;;;18.50;8.60;;;;;;;30.54;35.78;100419.06;5055129;28;20033;-4
2021/07/09 10:48:06;;;;;;;9.88;8.27;;;;;;;31.20;35.16;100423.50;5055367;28;20131;-4
2021/07/09 10:50:54;;;;;;;15.32;9.82;;;;;;;30.78;36.06;100426.94;5054623;28;20045;-4
2021/07/09 10:53:29;;;;;;;12.23;8.20;;;;;;;30.55;35.38;100416.22;5035538;28;20041;-4
2021/07/09 10:55:59;;;;;;;10.88;8.40;;;;;;;30.54;35.53;100411.81;5035395;28;20037;-4
2021/07/09 10:58:33;;;;;;;16.75;10.18;;;;;;;30.12;37.48;100414.28;5035625;28;20045;-4
2021/07/09 11:01:08;;;;;;;8.90;8.00;;;;;;;30.25;36.28;100406.06;5054864;28;20040;-5
2021/07/09 11:03:42;;;;;;;9.45;7.47;;;;;;;30.41;36.18;100403.81;5055108;28;20086;-4
2021/07/09 11:06:32;;;;;;;7.72;6.55;;;;;;;30.36;36.02;100411.44;5053565;28;20045;-7
2021/07/09 11:09:07;;;;;;;10.18;7.45;;;;;;;30.18;35.02;100398.47;5054537;28;20497;-4
2021/07/09 11:11:45;;;;;;;20.52;9.75;;;;;;;30.65;35.17;100394.72;5054726;28;20037;1
2021/07/09 11:14:20;;;;;;;13.93;7.78;;;;;;;30.87;35.87;100398.34;5054994;28;20409;1
2021/07/09 11:16:59;;;;;;;12.60;7.72;;;;;;;31.05;34.26;100399.53;5054438;28;20059;1
2021/07/09 11:19:34;;;;;;;14.07;9.90;;;;;;;30.90;35.24;100389.97;5053808;28;20060;1
2021/07/09 11:22:06;;;;;;;17.38;9.45;;;;;;;31.25;33.88;100388.88;5053505;28;20064;1
2021/07/09 11:24:41;;;;;;;13.52;8.25;;;;;;;31.41;34.33;100391.97;5050251;28;20103;0
2021/07/09 11:27:10;;;;;;;26.30;9.35;;;;;;;31.14;35.75;100381.69;5053549;28;20067;1
2021/07/09 11:29:40;;;;;;;20.48;9.15;;;;;;;30.96;35.48;100382.25;5053976;28;20441;1
2021/07/09 11:32:10;;;;;;;11.07;8.00;;;;;;;31.30;33.59;100378.53;5053928;28;20127;0